Latest Coastal Weather Observations for Yeppoon

IDQ60701

Issued at 2:01 pm EST Thursday 30 July 2015 (issued every 10 minutes, with the page automatically refreshed every 10 minutes)

About coastal observations | Map of coastal stations | Coastal observations for QLD | Marine services | Other Formats
Station Details ID: 033294 Name: YEPPOON THE ESPLANADE Lat: -23.14 Lon: 150.75 Height: 5.5 m
Data from the previous 72 hours. | See also: Recent months at Yeppoon
Date/Time
EST
Temp

°C
Wind Pressure Rain
since 9am
mm
Weather Cloud Vis
km
Sea
Height
m
Swell
Dir
 
Speed
knots
Gust
knots
hPa Trend Height
m
Period
s
Dir
30/02:00pm 20.6 ESE 10 14 1023.4 - 0.0 - - - - - - -
30/01:30pm 20.6 ESE 11 16 1023.7 - 0.0 - - - - - - -
30/01:00pm 20.7 ESE 12 15 1023.9 - 0.0 - - - - - - -
30/12:30pm 20.9 ESE 9 13 1024.3 - 0.0 - - - - - - -
30/12:00pm 20.2 ESE 11 17 1025.0 - 0.0 - - - - - - -
30/11:30am 20.1 SE 11 16 1025.5 - 0.0 - - - - - - -
30/11:00am 19.8 ESE 12 18 1025.8 - 0.0 - - - - - - -
30/10:30am 19.8 ESE 11 16 1025.9 - 0.0 - - - - - - -
30/10:00am 19.4 SE 11 16 1026.2 - 0.0 - - - - - - -
30/09:30am 18.8 ESE 10 15 1026.2 - 0.0 - - - - - - -
30/09:00am 18.0 SE 9 14 1026.0 - 0.0 - - - - - - -
30/08:30am 17.3 SE 9 13 1025.9 - 0.0 - - - - - - -
30/08:00am 16.5 SE 8 11 1025.7 - 0.0 - - - - - - -
30/07:30am 15.3 S 5 9 1025.6 - 0.0 - - - - - - -
30/07:00am 14.6 S 7 10 1025.3 - 0.0 - - - - - - -
30/06:30am 14.8 S 5 6 1025.1 - 0.0 - - - - - - -
30/06:00am 15.2 SSE 6 9 1025.0 - 0.0 - - - - - - -
30/05:30am 15.3 S 5 9 1024.8 - 0.0 - - - - - - -
30/05:00am 15.6 SSE 5 7 1024.4 - 0.0 - - - - - - -
30/04:30am 15.8 S 7 13 1024.9 - 0.0 - - - - - - -
30/04:00am 16.1 S 7 11 1025.1 - 0.0 - - - - - - -
30/03:30am 16.8 SSE 9 15 1025.0 - 0.0 - - - - - - -
30/03:00am 16.8 SE 10 13 1025.3 - 0.0 - - - - - - -
30/02:30am 17.1 SE 8 15 1025.4 - 0.0 - - - - - - -
30/02:00am 17.2 SSE 9 12 1025.5 - 0.0 - - - - - - -
30/01:30am 17.4 SE 9 13 1025.7 - 0.0 - - - - - - -
30/01:00am 17.7 SE 10 15 1026.0 - 0.0 - - - - - - -
30/12:30am 17.9 SE 11 17 1026.3 - 0.0 - - - - - - -
30/12:00am 18.1 SE 12 17 1026.4 - 0.0 - - - - - - -
 
Date/Time
EST
Temp

°C
Wind Pressure Rain
since 9am
mm
Weather Cloud Vis
km
Sea
Height
m
Swell
Dir
 
Speed
knots
Gust
knots
hPa Trend Height
m
Period
s
Dir
29/11:30pm 18.1 SE 11 16 1026.4 - 0.0 - - - - - - -
29/11:00pm 18.2 SE 11 16 1026.6 - 0.0 - - - - - - -
29/10:30pm 18.6 ESE 10 15 1026.6 - 0.0 - - - - - - -
29/10:00pm 18.9 ESE 11 18 1026.7 - 0.0 - - - - - - -
29/09:30pm 19.0 ESE 12 17 1026.7 - 0.0 - - - - - - -
29/09:00pm 19.1 ESE 10 16 1026.9 - 0.0 - - - - - - -
29/08:30pm 19.3 ESE 13 18 1026.9 - 0.0 - - - - - - -
29/08:00pm 19.3 ESE 11 16 1026.6 - 0.0 - - - - - - -
29/07:30pm 19.3 ESE 12 18 1026.5 - 0.0 - - - - - - -
29/07:00pm 19.3 ESE 11 18 1026.4 - 0.0 - - - - - - -
29/06:30pm 19.4 ESE 12 18 1026.0 - 0.0 - - - - - - -
29/06:00pm 19.3 ESE 11 16 1025.9 - 0.0 - - - - - - -
29/05:30pm 19.5 ESE 11 17 1025.6 - 0.0 - - - - - - -
29/05:00pm 19.7 ESE 13 19 1025.4 - 0.0 - - - - - - -
29/04:30pm 19.9 ESE 11 20 1025.2 - 0.0 - - - - - - -
29/04:00pm 20.1 ESE 13 19 1025.1 - 0.0 - - - - - - -
29/03:30pm 20.6 ESE 12 20 1025.3 - 0.0 - - - - - - -
29/03:00pm 21.0 ESE 11 17 1025.4 - 0.0 - - - - - - -
29/02:30pm 21.0 ESE 13 19 1025.6 - 0.0 - - - - - - -
29/02:00pm 21.3 ESE 12 17 1025.9 - 0.0 - - - - - - -
29/01:30pm 20.9 ESE 11 17 1026.2 - 0.0 - - - - - - -
29/01:00pm 21.1 ESE 12 17 1026.5 - 0.0 - - - - - - -
29/12:30pm 20.8 ESE 13 19 1027.0 - 0.0 - - - - - - -
29/12:00pm 20.6 ESE 12 19 1027.4 - 0.0 - - - - - - -
29/11:30am 20.2 ESE 12 18 1027.7 - 0.0 - - - - - - -
29/11:00am 19.8 ESE 10 14 1028.2 - 0.0 - - - - - - -
29/10:30am 19.3 SE 10 16 1028.6 - 0.0 - - - - - - -
29/10:00am 18.7 SSE 12 19 1028.9 - 0.0 - - - - - - -
29/09:30am 18.5 SE 11 16 1029.2 - 0.0 - - - - - - -
29/09:00am 17.7 SSE 9 14 1029.2 - 0.0 - - - - - - -
29/08:30am 16.5 S 8 11 1028.9 - 0.0 - - - - - - -
29/08:00am 15.5 S 7 9 1028.8 - 0.0 - - - - - - -
29/07:30am 14.6 S 8 10 1028.5 - 0.0 - - - - - - -
29/07:00am 14.2 S 7 10 1028.2 - 0.0 - - - - - - -
29/06:30am 14.8 S 6 10 1027.8 - 0.0 - - - - - - -
29/06:00am 15.9 SSE 8 11 1027.7 - 0.0 - - - - - - -
29/05:30am 16.0 SSE 9 12 1027.6 - 0.0 - - - - - - -
29/05:00am 16.0 SSE 9 13 1027.3 - 0.0 - - - - - - -
29/04:30am 15.9 SSE 8 12 1027.1 - 0.0 - - - - - - -
29/04:00am 15.7 S 7 13 1027.2 - 0.0 - - - - - - -
29/03:30am 16.0 S 9 13 1027.1 - 0.0 - - - - - - -
29/03:00am 16.4 SSE 9 13 1027.2 - 0.0 - - - - - - -
29/02:30am 16.6 SSE 7 11 1027.0 - 0.0 - - - - - - -
29/02:00am 16.9 SSE 9 12 1027.1 - 0.0 - - - - - - -
29/01:30am 17.3 S 7 11 1027.1 - 0.0 - - - - - - -
29/01:00am 18.8 SE 11 19 1027.3 - 0.0 - - - - - - -
29/12:30am 18.8 SE 12 17 1027.4 - 0.0 - - - - - - -
29/12:00am 18.9 SE 11 18 1027.3 - 0.0 - - - - - - -
 
Date/Time
EST
Temp

°C
Wind Pressure Rain
since 9am
mm
Weather Cloud Vis
km
Sea
Height
m
Swell
Dir
 
Speed
knots
Gust
knots
hPa Trend Height
m
Period
s
Dir
28/11:30pm 19.1 ESE 12 19 1027.3 - 0.0 - - - - - - -
28/11:00pm 19.2 ESE 12 20 1027.4 - 0.0 - - - - - - -
28/10:30pm 19.3 ESE 13 19 1027.7 - 0.0 - - - - - - -
28/10:00pm 19.3 ESE 12 21 1027.5 - 0.0 - - - - - - -
28/09:30pm 19.3 ESE 11 17 1027.7 - 0.0 - - - - - - -
28/09:00pm 19.4 ESE 12 17 1027.5 - 0.0 - - - - - - -
28/08:30pm 19.5 ESE 12 20 1027.4 - 0.0 - - - - - - -
28/08:00pm 19.5 ESE 12 18 1027.2 - 0.0 - - - - - - -
28/07:30pm 19.6 ESE 13 19 1027.1 - 0.0 - - - - - - -
28/07:00pm 19.6 ESE 11 16 1026.9 - 0.0 - - - - - - -
28/06:30pm 19.6 ESE 12 19 1026.6 - 0.0 - - - - - - -
28/06:00pm 19.7 ESE 12 19 1026.1 - 0.0 - - - - - - -
28/05:30pm 19.9 ESE 13 21 1025.9 - 0.0 - - - - - - -
28/05:00pm 20.2 ESE 11 18 1025.5 - 0.0 - - - - - - -
28/04:30pm 20.2 ESE 9 14 1025.2 - 0.0 - - - - - - -
28/04:00pm 20.1 ESE 7 9 1025.1 - 0.0 - - - - - - -
28/03:30pm 20.5 ESE 9 13 1025.0 - 0.0 - - - - - - -
28/03:00pm 20.8 ESE 9 11 1025.0 - 0.0 - - - - - - -
28/02:30pm 21.0 ESE 10 14 1025.1 - 0.0 - - - - - - -
28/02:00pm 20.5 SE 12 15 1025.3 - 0.0 - - - - - - -
28/01:30pm 20.2 SE 9 13 1025.5 - 0.0 - - - - - - -
28/01:00pm 20.1 SSE 8 13 1025.9 - 0.0 - - - - - - -
28/12:30pm 19.2 S 8 14 1026.4 - 0.0 - - - - - - -
28/12:00pm 18.1 S 9 14 1027.0 - 0.0 - - - - - - -
28/11:30am 18.9 S 9 15 1027.1 - 0.0 - - - - - - -
28/11:00am 19.4 S 11 17 1027.6 - 0.0 - - - - - - -
28/10:30am 18.6 S 8 12 1027.7 - 0.0 - - - - - - -
28/10:00am 17.1 S 9 15 1027.9 - 0.0 - - - - - - -
28/09:30am 16.6 SSW 7 10 1027.8 - 0.0 - - - - - - -
28/09:00am 15.5 SSW 7 11 1027.9 - 0.0 - - - - - - -
28/08:30am 14.6 SW 6 9 1027.8 - 0.0 - - - - - - -
28/08:00am 14.0 SW 6 9 1027.5 - 0.0 - - - - - - -
28/07:30am 13.7 SSW 5 7 1027.4 - 0.0 - - - - - - -
28/07:00am 13.6 SSW 4 7 1026.7 - 0.0 - - - - - - -
28/06:30am 13.7 SSW 5 8 1026.3 - 0.0 - - - - - - -
28/06:00am 13.5 SW 4 5 1026.0 - 0.0 - - - - - - -
28/05:30am 13.8 SW 3 5 1025.8 - 0.0 - - - - - - -
28/05:00am 14.3 SSW 4 5 1025.5 - 0.0 - - - - - - -
28/04:30am 14.8 SSW 5 8 1025.1 - 0.0 - - - - - - -
28/04:00am 14.8 SW 3 4 1025.0 - 0.0 - - - - - - -
28/03:30am 15.3 SW 3 4 1024.9 - 0.0 - - - - - - -
28/03:00am 15.7 SW 4 5 1024.8 - 0.0 - - - - - - -
28/02:30am 16.3 SW 4 6 1024.7 - 0.0 - - - - - - -
28/02:00am 16.4 SSW 5 7 1024.8 - 0.0 - - - - - - -
28/01:30am 16.7 SSW 6 8 1024.9 - 0.0 - - - - - - -
28/01:00am 17.0 S 6 8 1025.2 - 0.0 - - - - - - -
28/12:30am 17.1 SSW 5 7 1025.0 - 0.0 - - - - - - -
28/12:00am 17.4 SSW 6 9 1025.0 - 0.0 - - - - - - -
 
Date/Time
EST
Temp

°C
Wind Pressure Rain
since 9am
mm
Weather Cloud Vis
km
Sea
Height
m
Swell
Dir
 
Speed
knots
Gust
knots
hPa Trend Height
m
Period
s
Dir
27/11:30pm 17.6 SSW 5 6 1025.1 - 0.0 - - - - - - -
27/11:00pm 18.1 WSW 5 6 1025.2 - 0.0 - - - - - - -
27/10:30pm 18.3 W 6 7 1025.2 - 0.0 - - - - - - -
27/10:00pm 18.4 W 5 7 1025.2 - 0.0 - - - - - - -
27/09:30pm 18.3 W 6 7 1025.1 - 0.0 - - - - - - -
27/09:00pm 18.6 WSW 4 5 1025.0 - 0.0 - - - - - - -
27/08:30pm 18.6 SSW 4 4 1024.8 - 0.0 - - - - - - -
27/08:00pm 18.8 SSW 4 5 1024.5 - 0.0 - - - - - - -
27/07:30pm 19.2 SSW 4 5 1024.1 - 0.0 - - - - - - -
27/07:00pm 19.7 SSW 4 6 1023.5 - 0.0 - - - - - - -
27/06:30pm 20.7 NE 3 4 1023.0 - 0.0 - - - - - - -
27/06:00pm 20.9 NNE 4 5 1022.5 - 0.0 - - - - - - -
27/05:30pm 21.2 NNE 5 6 1022.0 - 0.0 - - - - - - -
27/05:00pm 21.3 NNE 6 7 1021.7 - 0.0 - - - - - - -
27/04:30pm 21.6 NNE 6 7 1021.2 - 0.0 - - - - - - -
27/04:00pm 21.5 NNE 6 9 1020.8 - 0.0 - - - - - - -
27/03:30pm 21.9 NE 7 8 1020.6 - 0.0 - - - - - - -
27/03:00pm 22.1 NE 7 8 1020.5 - 0.0 - - - - - - -
27/02:30pm 22.6 NE 6 7 1020.6 - 0.0 - - - - - - -

Other Formats:

Comma delimited format used in spreadsheet applications
http://www.bom.gov.au/fwo/IDQ60701/IDQ60701.94373.axf

JavaScript Object Notation format (JSON) in row-major order
http://www.bom.gov.au/fwo/IDQ60701/IDQ60701.94373.json